This is the latest recevied weather packets stored in our database for station/object JA3QOS-13. If no packets are shown the sender has not sent any weather packets the latest 10 day(s).
| Time | Temp. | Humidity | Pressure | Rain* | Wind** | Luminosity | Snow |
|---|---|---|---|---|---|---|---|
| 1777716004 | 15.56° C | 75% | 1012.3 hPa | 0 mm | - | - | - |
| 1777714203 | 16.67° C | 72% | 1012.4 hPa | 0 mm | - | - | - |
| 1777712404 | 16.67° C | 72% | 1012 hPa | 0 mm | - | - | - |
| 1777710603 | 16.67° C | 69% | 1011.9 hPa | 0 mm | - | - | - |
| 1777708804 | 17.22° C | 69% | 1011.7 hPa | 0 mm | - | - | - |
| 1777707003 | 17.22° C | 68% | 1011.7 hPa | 0 mm | - | - | - |
| 1777705203 | 17.22° C | 68% | 1011.3 hPa | 0 mm | - | - | - |
| 1777703403 | 18.33° C | 68% | 1011.3 hPa | 0 mm | - | - | - |
| 1777701603 | 18.89° C | 68% | 1011.3 hPa | 0 mm | - | - | - |
| 1777699804 | 19.44° C | 67% | 1011.5 hPa | 0 mm | - | - | - |
| 1777698004 | 21.11° C | 66% | 1011.6 hPa | 0 mm | - | - | - |
| 1777696203 | 21.67° C | 65% | 1011.8 hPa | 0 mm | - | - | - |
| 1777694404 | 20° C | 68% | 1011.9 hPa | 0 mm | - | - | - |
| 1777692604 | 19.44° C | 69% | 1012 hPa | 0 mm | - | - | - |
| 1777690803 | 18.33° C | 71% | 1012.2 hPa | 0 mm | - | - | - |
| 1777689004 | 18.89° C | 72% | 1012.7 hPa | 0 mm | - | - | - |
| 1777687204 | 18.33° C | 72% | 1013.1 hPa | 0 mm | - | - | - |
| 1777685404 | 17.22° C | 76% | 1013.1 hPa | 0.25 mm | - | - | - |
| 1777683604 | 15.56° C | 79% | 1013.1 hPa | 0.25 mm | - | - | - |
| 1777681804 | 14.44° C | 80% | 1013 hPa | 0 mm | - | - | - |
| 1777680014 | 12.78° C | 84% | 1012.8 hPa | 0 mm | - | - | - |
| 1777678204 | 11.67° C | 89% | 1012.5 hPa | 0 mm | - | - | - |
| 1777676404 | 10.56° C | 95% | 1012.1 hPa | 0 mm | - | - | - |
| 1777674604 | 10° C | 98% | 1012.1 hPa | 0 mm | - | - | - |
| 1777672804 | 8.89° C | 99% | 1011.6 hPa | 0 mm | - | - | - |
* Rain latest hour (hover to see other rain measurements)
** Current wind speed in m/s (hover to see current wind gust speed)